sensor_id;sensor_type;location;lat;lon;timestamp;P1;durP1;ratioP1;P2;durP2;ratioP2
57317;SDS011;43157;50.982;18.132;2023-11-19T00:00:27;56.80;;;21.90;;
57317;SDS011;43157;50.982;18.132;2023-11-19T00:02:52;49.00;;;19.50;;
57317;SDS011;43157;50.982;18.132;2023-11-19T00:05:18;51.90;;;20.90;;
57317;SDS011;43157;50.982;18.132;2023-11-19T00:07:44;44.40;;;17.20;;
57317;SDS011;43157;50.982;18.132;2023-11-19T00:10:10;55.40;;;21.00;;
57317;SDS011;43157;50.982;18.132;2023-11-19T00:12:41;49.80;;;20.50;;
57317;SDS011;43157;50.982;18.132;2023-11-19T00:15:09;52.70;;;22.50;;
57317;SDS011;43157;50.982;18.132;2023-11-19T00:17:37;48.90;;;21.30;;
57317;SDS011;43157;50.982;18.132;2023-11-19T00:20:06;45.60;;;19.20;;
57317;SDS011;43157;50.982;18.132;2023-11-19T00:22:33;57.70;;;23.40;;
57317;SDS011;43157;50.982;18.132;2023-11-19T00:24:59;54.70;;;21.80;;
57317;SDS011;43157;50.982;18.132;2023-11-19T00:27:25;53.40;;;22.90;;
57317;SDS011;43157;50.982;18.132;2023-11-19T00:29:51;61.10;;;23.40;;
57317;SDS011;43157;50.982;18.132;2023-11-19T00:32:16;66.80;;;28.10;;
57317;SDS011;43157;50.982;18.132;2023-11-19T00:34:45;52.30;;;21.90;;
57317;SDS011;43157;50.982;18.132;2023-11-19T00:37:12;52.30;;;21.20;;
57317;SDS011;43157;50.982;18.132;2023-11-19T00:39:38;57.10;;;23.70;;
57317;SDS011;43157;50.982;18.132;2023-11-19T00:42:03;54.50;;;23.40;;
57317;SDS011;43157;50.982;18.132;2023-11-19T00:44:29;53.10;;;23.30;;
57317;SDS011;43157;50.982;18.132;2023-11-19T00:46:54;54.70;;;23.30;;
57317;SDS011;43157;50.982;18.132;2023-11-19T00:49:20;49.20;;;23.70;;
57317;SDS011;43157;50.982;18.132;2023-11-19T00:51:45;58.00;;;22.50;;
57317;SDS011;43157;50.982;18.132;2023-11-19T00:54:11;51.00;;;22.70;;
57317;SDS011;43157;50.982;18.132;2023-11-19T00:56:36;49.90;;;21.10;;
57317;SDS011;43157;50.982;18.132;2023-11-19T00:59:02;50.50;;;21.80;;
57317;SDS011;43157;50.982;18.132;2023-11-19T01:01:29;60.20;;;24.90;;
57317;SDS011;43157;50.982;18.132;2023-11-19T01:03:55;51.80;;;23.10;;
57317;SDS011;43157;50.982;18.132;2023-11-19T01:06:32;47.00;;;19.60;;
57317;SDS011;43157;50.982;18.132;2023-11-19T01:08:57;50.80;;;19.90;;
57317;SDS011;43157;50.982;18.132;2023-11-19T01:11:24;54.10;;;22.10;;
57317;SDS011;43157;50.982;18.132;2023-11-19T01:13:50;44.80;;;16.50;;
57317;SDS011;43157;50.982;18.132;2023-11-19T01:16:16;47.80;;;19.60;;
57317;SDS011;43157;50.982;18.132;2023-11-19T01:18:46;48.20;;;19.90;;
57317;SDS011;43157;50.982;18.132;2023-11-19T01:21:12;48.70;;;18.70;;
57317;SDS011;43157;50.982;18.132;2023-11-19T01:23:40;42.20;;;16.10;;
57317;SDS011;43157;50.982;18.132;2023-11-19T01:26:09;40.30;;;15.20;;
57317;SDS011;43157;50.982;18.132;2023-11-19T01:28:35;52.10;;;18.40;;
57317;SDS011;43157;50.982;18.132;2023-11-19T01:31:01;46.60;;;19.20;;
57317;SDS011;43157;50.982;18.132;2023-11-19T01:33:28;45.20;;;17.20;;
57317;SDS011;43157;50.982;18.132;2023-11-19T01:35:54;41.90;;;16.40;;
57317;SDS011;43157;50.982;18.132;2023-11-19T01:38:19;43.60;;;17.50;;
57317;SDS011;43157;50.982;18.132;2023-11-19T01:40:45;45.40;;;17.50;;
57317;SDS011;43157;50.982;18.132;2023-11-19T01:43:10;41.90;;;16.50;;
57317;SDS011;43157;50.982;18.132;2023-11-19T01:45:36;38.70;;;13.60;;
57317;SDS011;43157;50.982;18.132;2023-11-19T01:48:02;38.80;;;14.80;;
57317;SDS011;43157;50.982;18.132;2023-11-19T01:50:33;38.80;;;14.20;;
57317;SDS011;43157;50.982;18.132;2023-11-19T01:52:59;38.30;;;14.40;;
57317;SDS011;43157;50.982;18.132;2023-11-19T01:55:25;33.20;;;13.10;;
57317;SDS011;43157;50.982;18.132;2023-11-19T01:57:53;38.90;;;14.20;;
57317;SDS011;43157;50.982;18.132;2023-11-19T02:00:21;32.60;;;13.90;;
57317;SDS011;43157;50.982;18.132;2023-11-19T02:02:47;38.00;;;15.40;;
57317;SDS011;43157;50.982;18.132;2023-11-19T02:05:13;38.90;;;15.50;;
57317;SDS011;43157;50.982;18.132;2023-11-19T02:07:39;37.30;;;14.60;;
57317;SDS011;43157;50.982;18.132;2023-11-19T02:10:05;35.90;;;14.10;;
57317;SDS011;43157;50.982;18.132;2023-11-19T02:12:32;38.60;;;14.70;;
57317;SDS011;43157;50.982;18.132;2023-11-19T02:15:02;36.60;;;14.10;;
57317;SDS011;43157;50.982;18.132;2023-11-19T02:17:29;38.20;;;14.80;;
57317;SDS011;43157;50.982;18.132;2023-11-19T02:19:59;31.80;;;11.10;;
57317;SDS011;43157;50.982;18.132;2023-11-19T02:22:25;35.00;;;14.80;;
57317;SDS011;43157;50.982;18.132;2023-11-19T02:24:51;33.90;;;12.20;;
57317;SDS011;43157;50.982;18.132;2023-11-19T02:27:31;32.80;;;12.60;;
57317;SDS011;43157;50.982;18.132;2023-11-19T02:30:13;31.40;;;11.70;;
57317;SDS011;43157;50.982;18.132;2023-11-19T02:32:41;32.20;;;11.90;;
57317;SDS011;43157;50.982;18.132;2023-11-19T02:35:07;35.80;;;14.60;;
57317;SDS011;43157;50.982;18.132;2023-11-19T02:37:36;32.10;;;12.70;;
57317;SDS011;43157;50.982;18.132;2023-11-19T02:40:03;36.10;;;14.70;;
57317;SDS011;43157;50.982;18.132;2023-11-19T02:42:30;36.20;;;13.90;;
57317;SDS011;43157;50.982;18.132;2023-11-19T02:44:56;38.00;;;14.30;;
57317;SDS011;43157;50.982;18.132;2023-11-19T02:47:22;28.30;;;10.80;;
57317;SDS011;43157;50.982;18.132;2023-11-19T02:49:49;37.30;;;12.90;;
57317;SDS011;43157;50.982;18.132;2023-11-19T02:52:15;39.40;;;15.00;;
57317;SDS011;43157;50.982;18.132;2023-11-19T02:54:41;33.90;;;12.60;;
57317;SDS011;43157;50.982;18.132;2023-11-19T02:57:08;39.80;;;15.50;;
57317;SDS011;43157;50.982;18.132;2023-11-19T02:59:38;36.10;;;12.50;;
57317;SDS011;43157;50.982;18.132;2023-11-19T03:02:05;37.50;;;14.80;;
57317;SDS011;43157;50.982;18.132;2023-11-19T03:04:40;38.80;;;14.20;;
57317;SDS011;43157;50.982;18.132;2023-11-19T03:07:06;36.50;;;14.10;;
57317;SDS011;43157;50.982;18.132;2023-11-19T03:09:34;40.80;;;15.30;;
57317;SDS011;43157;50.982;18.132;2023-11-19T03:12:01;41.10;;;15.10;;
57317;SDS011;43157;50.982;18.132;2023-11-19T03:14:27;36.30;;;13.50;;
57317;SDS011;43157;50.982;18.132;2023-11-19T03:16:53;38.20;;;15.10;;
57317;SDS011;43157;50.982;18.132;2023-11-19T03:19:19;37.30;;;14.10;;
57317;SDS011;43157;50.982;18.132;2023-11-19T03:21:44;37.80;;;14.60;;
57317;SDS011;43157;50.982;18.132;2023-11-19T03:24:12;39.10;;;14.60;;
57317;SDS011;43157;50.982;18.132;2023-11-19T03:26:38;41.10;;;14.70;;
57317;SDS011;43157;50.982;18.132;2023-11-19T03:29:04;40.30;;;15.50;;
57317;SDS011;43157;50.982;18.132;2023-11-19T03:31:30;43.90;;;18.70;;
57317;SDS011;43157;50.982;18.132;2023-11-19T03:33:56;45.70;;;17.30;;
57317;SDS011;43157;50.982;18.132;2023-11-19T03:36:21;39.80;;;15.80;;
57317;SDS011;43157;50.982;18.132;2023-11-19T03:38:47;39.00;;;15.40;;
57317;SDS011;43157;50.982;18.132;2023-11-19T03:41:13;44.60;;;17.60;;
57317;SDS011;43157;50.982;18.132;2023-11-19T03:43:39;50.10;;;16.70;;
57317;SDS011;43157;50.982;18.132;2023-11-19T03:46:21;40.10;;;16.50;;
57317;SDS011;43157;50.982;18.132;2023-11-19T03:48:47;33.80;;;11.90;;
57317;SDS011;43157;50.982;18.132;2023-11-19T03:51:14;41.30;;;15.20;;
57317;SDS011;43157;50.982;18.132;2023-11-19T03:53:49;35.70;;;12.90;;
57317;SDS011;43157;50.982;18.132;2023-11-19T03:56:14;39.10;;;14.70;;
57317;SDS011;43157;50.982;18.132;2023-11-19T03:58:40;35.30;;;12.60;;
57317;SDS011;43157;50.982;18.132;2023-11-19T04:01:05;38.60;;;12.70;;
57317;SDS011;43157;50.982;18.132;2023-11-19T04:03:31;38.10;;;14.10;;
57317;SDS011;43157;50.982;18.132;2023-11-19T04:05:57;34.20;;;13.00;;
57317;SDS011;43157;50.982;18.132;2023-11-19T04:08:22;36.50;;;14.60;;
57317;SDS011;43157;50.982;18.132;2023-11-19T04:10:48;38.00;;;14.50;;
57317;SDS011;43157;50.982;18.132;2023-11-19T04:13:16;34.70;;;13.40;;
57317;SDS011;43157;50.982;18.132;2023-11-19T04:15:42;38.90;;;14.80;;
57317;SDS011;43157;50.982;18.132;2023-11-19T04:18:09;36.10;;;13.30;;
57317;SDS011;43157;50.982;18.132;2023-11-19T04:20:35;36.10;;;14.20;;
57317;SDS011;43157;50.982;18.132;2023-11-19T04:23:01;36.50;;;13.50;;
57317;SDS011;43157;50.982;18.132;2023-11-19T04:25:27;28.20;;;11.10;;
57317;SDS011;43157;50.982;18.132;2023-11-19T04:27:53;41.60;;;14.10;;
57317;SDS011;43157;50.982;18.132;2023-11-19T04:30:18;38.50;;;15.70;;
57317;SDS011;43157;50.982;18.132;2023-11-19T04:32:44;39.80;;;14.40;;
57317;SDS011;43157;50.982;18.132;2023-11-19T04:35:10;41.60;;;15.90;;
57317;SDS011;43157;50.982;18.132;2023-11-19T04:37:36;31.60;;;12.60;;
57317;SDS011;43157;50.982;18.132;2023-11-19T04:40:03;37.10;;;14.50;;
57317;SDS011;43157;50.982;18.132;2023-11-19T04:42:29;33.90;;;14.70;;
57317;SDS011;43157;50.982;18.132;2023-11-19T04:44:55;37.00;;;14.60;;
57317;SDS011;43157;50.982;18.132;2023-11-19T04:47:21;38.80;;;14.90;;
57317;SDS011;43157;50.982;18.132;2023-11-19T04:49:48;38.40;;;13.90;;
57317;SDS011;43157;50.982;18.132;2023-11-19T04:52:13;38.30;;;13.90;;
57317;SDS011;43157;50.982;18.132;2023-11-19T04:54:42;29.80;;;11.60;;
57317;SDS011;43157;50.982;18.132;2023-11-19T04:57:10;39.30;;;15.70;;
57317;SDS011;43157;50.982;18.132;2023-11-19T04:59:36;42.30;;;15.30;;
57317;SDS011;43157;50.982;18.132;2023-11-19T05:02:02;38.30;;;15.70;;
57317;SDS011;43157;50.982;18.132;2023-11-19T05:04:29;37.50;;;14.50;;
57317;SDS011;43157;50.982;18.132;2023-11-19T05:06:55;42.30;;;17.00;;
57317;SDS011;43157;50.982;18.132;2023-11-19T05:09:21;38.40;;;15.70;;
57317;SDS011;43157;50.982;18.132;2023-11-19T05:11:46;39.40;;;15.60;;
57317;SDS011;43157;50.982;18.132;2023-11-19T05:14:12;40.50;;;15.40;;
57317;SDS011;43157;50.982;18.132;2023-11-19T05:16:41;44.00;;;16.50;;
57317;SDS011;43157;50.982;18.132;2023-11-19T05:19:08;44.90;;;17.60;;
57317;SDS011;43157;50.982;18.132;2023-11-19T05:21:34;41.80;;;16.60;;
57317;SDS011;43157;50.982;18.132;2023-11-19T05:24:01;47.50;;;16.70;;
57317;SDS011;43157;50.982;18.132;2023-11-19T05:26:30;41.90;;;16.00;;
57317;SDS011;43157;50.982;18.132;2023-11-19T05:28:56;46.80;;;17.70;;
57317;SDS011;43157;50.982;18.132;2023-11-19T05:31:22;39.60;;;14.50;;
57317;SDS011;43157;50.982;18.132;2023-11-19T05:33:47;40.90;;;16.90;;
57317;SDS011;43157;50.982;18.132;2023-11-19T05:36:13;39.80;;;16.10;;
57317;SDS011;43157;50.982;18.132;2023-11-19T05:38:39;46.20;;;17.10;;
57317;SDS011;43157;50.982;18.132;2023-11-19T05:41:05;38.60;;;16.50;;
57317;SDS011;43157;50.982;18.132;2023-11-19T05:43:31;41.80;;;16.60;;
57317;SDS011;43157;50.982;18.132;2023-11-19T05:45:57;42.20;;;14.00;;
57317;SDS011;43157;50.982;18.132;2023-11-19T05:48:23;42.90;;;18.20;;
57317;SDS011;43157;50.982;18.132;2023-11-19T05:50:50;43.00;;;16.20;;
57317;SDS011;43157;50.982;18.132;2023-11-19T05:53:16;42.70;;;17.20;;
57317;SDS011;43157;50.982;18.132;2023-11-19T05:55:41;44.00;;;18.40;;
57317;SDS011;43157;50.982;18.132;2023-11-19T05:58:14;43.30;;;18.30;;
57317;SDS011;43157;50.982;18.132;2023-11-19T06:00:40;42.40;;;15.40;;
57317;SDS011;43157;50.982;18.132;2023-11-19T06:03:06;46.10;;;18.00;;
57317;SDS011;43157;50.982;18.132;2023-11-19T06:05:32;46.70;;;18.90;;
57317;SDS011;43157;50.982;18.132;2023-11-19T06:07:58;41.40;;;15.60;;
57317;SDS011;43157;50.982;18.132;2023-11-19T06:10:24;39.90;;;16.30;;
57317;SDS011;43157;50.982;18.132;2023-11-19T06:12:59;40.90;;;15.60;;
57317;SDS011;43157;50.982;18.132;2023-11-19T06:15:25;40.40;;;16.30;;
57317;SDS011;43157;50.982;18.132;2023-11-19T06:17:52;40.10;;;15.80;;
57317;SDS011;43157;50.982;18.132;2023-11-19T06:20:18;42.80;;;16.90;;
57317;SDS011;43157;50.982;18.132;2023-11-19T06:22:46;42.40;;;15.10;;
57317;SDS011;43157;50.982;18.132;2023-11-19T06:25:12;44.10;;;16.30;;
57317;SDS011;43157;50.982;18.132;2023-11-19T06:27:40;39.90;;;17.10;;
57317;SDS011;43157;50.982;18.132;2023-11-19T06:30:06;44.60;;;16.30;;
57317;SDS011;43157;50.982;18.132;2023-11-19T06:32:33;42.10;;;15.50;;
57317;SDS011;43157;50.982;18.132;2023-11-19T06:34:58;38.90;;;14.20;;
57317;SDS011;43157;50.982;18.132;2023-11-19T06:37:24;40.40;;;14.80;;
57317;SDS011;43157;50.982;18.132;2023-11-19T06:39:50;42.70;;;17.60;;
57317;SDS011;43157;50.982;18.132;2023-11-19T06:42:15;44.70;;;17.40;;
57317;SDS011;43157;50.982;18.132;2023-11-19T06:44:41;42.30;;;17.30;;
57317;SDS011;43157;50.982;18.132;2023-11-19T06:47:07;41.30;;;15.60;;
57317;SDS011;43157;50.982;18.132;2023-11-19T06:49:32;41.80;;;16.80;;
57317;SDS011;43157;50.982;18.132;2023-11-19T06:51:58;32.00;;;13.70;;
57317;SDS011;43157;50.982;18.132;2023-11-19T06:54:23;38.10;;;15.70;;
57317;SDS011;43157;50.982;18.132;2023-11-19T06:56:49;42.00;;;17.90;;
57317;SDS011;43157;50.982;18.132;2023-11-19T06:59:15;41.90;;;15.80;;
57317;SDS011;43157;50.982;18.132;2023-11-19T07:01:40;42.00;;;15.80;;
57317;SDS011;43157;50.982;18.132;2023-11-19T07:04:12;44.30;;;15.40;;
57317;SDS011;43157;50.982;18.132;2023-11-19T07:06:37;39.00;;;16.40;;
57317;SDS011;43157;50.982;18.132;2023-11-19T07:09:06;36.70;;;13.70;;
57317;SDS011;43157;50.982;18.132;2023-11-19T07:11:38;40.80;;;15.10;;
57317;SDS011;43157;50.982;18.132;2023-11-19T07:14:04;52.00;;;17.00;;
57317;SDS011;43157;50.982;18.132;2023-11-19T07:16:32;39.30;;;14.30;;
57317;SDS011;43157;50.982;18.132;2023-11-19T07:19:00;65.70;;;22.80;;
57317;SDS011;43157;50.982;18.132;2023-11-19T07:21:26;43.60;;;14.70;;
57317;SDS011;43157;50.982;18.132;2023-11-19T07:23:56;42.70;;;17.20;;
57317;SDS011;43157;50.982;18.132;2023-11-19T07:26:22;38.70;;;15.70;;
57317;SDS011;43157;50.982;18.132;2023-11-19T07:28:48;38.90;;;14.20;;
57317;SDS011;43157;50.982;18.132;2023-11-19T07:44:03;37.50;;;17.30;;
57317;SDS011;43157;50.982;18.132;2023-11-19T07:46:29;36.20;;;14.70;;
57317;SDS011;43157;50.982;18.132;2023-11-19T07:48:54;38.30;;;15.60;;
57317;SDS011;43157;50.982;18.132;2023-11-19T07:51:20;40.40;;;16.30;;
57317;SDS011;43157;50.982;18.132;2023-11-19T07:53:46;42.60;;;16.30;;
57317;SDS011;43157;50.982;18.132;2023-11-19T07:56:12;41.50;;;17.30;;
57317;SDS011;43157;50.982;18.132;2023-11-19T07:58:37;36.10;;;14.40;;
57317;SDS011;43157;50.982;18.132;2023-11-19T08:01:03;32.40;;;13.50;;
57317;SDS011;43157;50.982;18.132;2023-11-19T08:03:30;45.30;;;16.40;;
57317;SDS011;43157;50.982;18.132;2023-11-19T08:05:56;38.40;;;15.20;;
57317;SDS011;43157;50.982;18.132;2023-11-19T08:08:24;39.10;;;16.60;;
57317;SDS011;43157;50.982;18.132;2023-11-19T08:10:50;38.90;;;15.10;;
57317;SDS011;43157;50.982;18.132;2023-11-19T08:13:19;42.80;;;17.20;;
57317;SDS011;43157;50.982;18.132;2023-11-19T08:15:45;43.10;;;15.60;;
57317;SDS011;43157;50.982;18.132;2023-11-19T08:18:11;38.00;;;13.30;;
57317;SDS011;43157;50.982;18.132;2023-11-19T08:20:37;41.90;;;16.60;;
57317;SDS011;43157;50.982;18.132;2023-11-19T08:23:02;37.10;;;14.90;;
57317;SDS011;43157;50.982;18.132;2023-11-19T08:25:31;41.60;;;17.50;;
57317;SDS011;43157;50.982;18.132;2023-11-19T08:27:59;31.90;;;12.40;;
57317;SDS011;43157;50.982;18.132;2023-11-19T08:30:25;28.10;;;13.30;;
57317;SDS011;43157;50.982;18.132;2023-11-19T08:32:52;33.30;;;14.80;;
57317;SDS011;43157;50.982;18.132;2023-11-19T08:35:18;37.50;;;15.20;;
57317;SDS011;43157;50.982;18.132;2023-11-19T08:37:43;29.90;;;11.90;;
57317;SDS011;43157;50.982;18.132;2023-11-19T08:40:11;31.80;;;13.30;;
57317;SDS011;43157;50.982;18.132;2023-11-19T08:42:38;37.40;;;14.80;;
57317;SDS011;43157;50.982;18.132;2023-11-19T08:45:05;34.30;;;13.80;;
57317;SDS011;43157;50.982;18.132;2023-11-19T08:47:31;38.80;;;15.20;;
57317;SDS011;43157;50.982;18.132;2023-11-19T08:49:56;37.20;;;16.80;;
57317;SDS011;43157;50.982;18.132;2023-11-19T08:52:22;36.00;;;13.20;;
57317;SDS011;43157;50.982;18.132;2023-11-19T08:54:47;40.50;;;16.30;;
57317;SDS011;43157;50.982;18.132;2023-11-19T08:57:13;50.50;;;18.30;;
57317;SDS011;43157;50.982;18.132;2023-11-19T08:59:39;37.70;;;15.20;;
57317;SDS011;43157;50.982;18.132;2023-11-19T09:02:05;27.10;;;10.90;;
57317;SDS011;43157;50.982;18.132;2023-11-19T09:04:30;38.20;;;14.60;;
57317;SDS011;43157;50.982;18.132;2023-11-19T09:06:57;29.60;;;11.80;;
57317;SDS011;43157;50.982;18.132;2023-11-19T09:09:23;32.40;;;10.80;;
57317;SDS011;43157;50.982;18.132;2023-11-19T09:11:48;36.90;;;14.30;;
57317;SDS011;43157;50.982;18.132;2023-11-19T09:14:14;34.90;;;14.80;;
57317;SDS011;43157;50.982;18.132;2023-11-19T09:16:40;47.20;;;19.30;;
57317;SDS011;43157;50.982;18.132;2023-11-19T09:19:06;36.60;;;16.50;;
57317;SDS011;43157;50.982;18.132;2023-11-19T09:21:32;41.60;;;17.80;;
57317;SDS011;43157;50.982;18.132;2023-11-19T09:23:59;34.10;;;12.40;;
57317;SDS011;43157;50.982;18.132;2023-11-19T09:26:25;30.40;;;12.90;;
57317;SDS011;43157;50.982;18.132;2023-11-19T09:28:50;28.00;;;10.20;;
57317;SDS011;43157;50.982;18.132;2023-11-19T09:31:16;36.10;;;14.80;;
57317;SDS011;43157;50.982;18.132;2023-11-19T09:33:42;29.20;;;9.60;;
57317;SDS011;43157;50.982;18.132;2023-11-19T09:36:08;29.80;;;11.00;;
57317;SDS011;43157;50.982;18.132;2023-11-19T09:38:35;30.60;;;11.20;;
57317;SDS011;43157;50.982;18.132;2023-11-19T09:41:04;35.40;;;12.70;;
57317;SDS011;43157;50.982;18.132;2023-11-19T09:43:34;39.00;;;16.10;;
57317;SDS011;43157;50.982;18.132;2023-11-19T09:46:05;41.70;;;16.80;;
57317;SDS011;43157;50.982;18.132;2023-11-19T09:48:37;63.80;;;21.80;;
57317;SDS011;43157;50.982;18.132;2023-11-19T09:51:06;58.80;;;19.90;;
57317;SDS011;43157;50.982;18.132;2023-11-19T09:53:33;42.90;;;14.00;;
57317;SDS011;43157;50.982;18.132;2023-11-19T09:56:00;39.90;;;16.20;;
57317;SDS011;43157;50.982;18.132;2023-11-19T09:58:28;56.00;;;21.40;;
57317;SDS011;43157;50.982;18.132;2023-11-19T10:00:54;53.80;;;19.30;;
57317;SDS011;43157;50.982;18.132;2023-11-19T10:03:21;60.50;;;22.90;;
57317;SDS011;43157;50.982;18.132;2023-11-19T10:05:48;54.10;;;20.10;;
57317;SDS011;43157;50.982;18.132;2023-11-19T10:08:14;45.60;;;20.10;;
57317;SDS011;43157;50.982;18.132;2023-11-19T10:10:39;49.70;;;21.30;;
57317;SDS011;43157;50.982;18.132;2023-11-19T10:13:05;47.30;;;20.20;;
57317;SDS011;43157;50.982;18.132;2023-11-19T10:15:34;35.20;;;15.70;;
57317;SDS011;43157;50.982;18.132;2023-11-19T10:18:02;49.10;;;19.70;;
57317;SDS011;43157;50.982;18.132;2023-11-19T10:20:34;37.20;;;16.80;;
57317;SDS011;43157;50.982;18.132;2023-11-19T10:23:01;41.50;;;17.80;;
57317;SDS011;43157;50.982;18.132;2023-11-19T10:25:27;44.30;;;17.80;;
57317;SDS011;43157;50.982;18.132;2023-11-19T10:27:54;33.90;;;12.50;;
57317;SDS011;43157;50.982;18.132;2023-11-19T10:30:24;28.90;;;13.50;;
57317;SDS011;43157;50.982;18.132;2023-11-19T10:33:07;30.50;;;12.10;;
57317;SDS011;43157;50.982;18.132;2023-11-19T10:35:52;26.40;;;11.00;;
57317;SDS011;43157;50.982;18.132;2023-11-19T10:38:18;28.00;;;10.90;;
57317;SDS011;43157;50.982;18.132;2023-11-19T10:40:44;31.60;;;13.70;;
57317;SDS011;43157;50.982;18.132;2023-11-19T10:43:10;31.20;;;11.80;;
57317;SDS011;43157;50.982;18.132;2023-11-19T10:45:36;31.10;;;12.80;;
57317;SDS011;43157;50.982;18.132;2023-11-19T10:48:03;32.60;;;13.30;;
57317;SDS011;43157;50.982;18.132;2023-11-19T10:50:39;36.60;;;14.20;;
57317;SDS011;43157;50.982;18.132;2023-11-19T10:53:06;34.70;;;12.20;;
57317;SDS011;43157;50.982;18.132;2023-11-19T10:55:32;33.30;;;13.10;;
57317;SDS011;43157;50.982;18.132;2023-11-19T10:58:04;30.00;;;12.00;;
57317;SDS011;43157;50.982;18.132;2023-11-19T11:00:55;28.00;;;11.40;;
57317;SDS011;43157;50.982;18.132;2023-11-19T11:03:24;30.80;;;12.30;;
57317;SDS011;43157;50.982;18.132;2023-11-19T11:05:51;26.80;;;9.60;;
57317;SDS011;43157;50.982;18.132;2023-11-19T11:08:18;28.20;;;10.20;;
57317;SDS011;43157;50.982;18.132;2023-11-19T11:10:52;22.50;;;11.90;;
57317;SDS011;43157;50.982;18.132;2023-11-19T11:15:44;30.10;;;13.20;;
57317;SDS011;43157;50.982;18.132;2023-11-19T11:18:12;32.40;;;12.60;;
57317;SDS011;43157;50.982;18.132;2023-11-19T11:20:39;30.50;;;12.80;;
57317;SDS011;43157;50.982;18.132;2023-11-19T11:28:46;28.90;;;12.00;;
57317;SDS011;43157;50.982;18.132;2023-11-19T11:40:15;31.70;;;14.90;;
57317;SDS011;43157;50.982;18.132;2023-11-19T11:42:41;32.60;;;15.30;;
57317;SDS011;43157;50.982;18.132;2023-11-19T11:45:08;30.80;;;11.30;;
57317;SDS011;43157;50.982;18.132;2023-11-19T11:50:10;23.20;;;10.10;;
57317;SDS011;43157;50.982;18.132;2023-11-19T11:57:57;24.00;;;10.60;;
57317;SDS011;43157;50.982;18.132;2023-11-19T12:02:59;33.70;;;12.40;;
57317;SDS011;43157;50.982;18.132;2023-11-19T12:05:26;24.70;;;10.20;;
57317;SDS011;43157;50.982;18.132;2023-11-19T12:08:02;25.20;;;11.00;;
57317;SDS011;43157;50.982;18.132;2023-11-19T12:10:32;24.00;;;11.40;;
57317;SDS011;43157;50.982;18.132;2023-11-19T12:13:04;20.90;;;10.10;;
57317;SDS011;43157;50.982;18.132;2023-11-19T12:15:32;25.50;;;11.70;;
57317;SDS011;43157;50.982;18.132;2023-11-19T12:17:58;28.50;;;12.60;;
57317;SDS011;43157;50.982;18.132;2023-11-19T12:20:25;19.60;;;8.90;;
57317;SDS011;43157;50.982;18.132;2023-11-19T12:22:51;28.00;;;13.50;;
57317;SDS011;43157;50.982;18.132;2023-11-19T12:25:18;22.70;;;9.40;;
57317;SDS011;43157;50.982;18.132;2023-11-19T12:27:49;24.60;;;11.50;;
57317;SDS011;43157;50.982;18.132;2023-11-19T12:30:22;24.30;;;11.10;;
57317;SDS011;43157;50.982;18.132;2023-11-19T12:32:49;21.50;;;8.60;;
57317;SDS011;43157;50.982;18.132;2023-11-19T12:35:15;23.80;;;8.60;;
57317;SDS011;43157;50.982;18.132;2023-11-19T12:40:22;31.50;;;13.10;;
57317;SDS011;43157;50.982;18.132;2023-11-19T12:42:53;24.40;;;9.80;;
57317;SDS011;43157;50.982;18.132;2023-11-19T12:45:20;28.20;;;12.40;;
57317;SDS011;43157;50.982;18.132;2023-11-19T12:47:48;20.70;;;8.70;;
57317;SDS011;43157;50.982;18.132;2023-11-19T12:50:15;24.00;;;10.10;;
57317;SDS011;43157;50.982;18.132;2023-11-19T12:52:54;22.30;;;9.10;;
57317;SDS011;43157;50.982;18.132;2023-11-19T12:55:25;20.90;;;9.40;;
57317;SDS011;43157;50.982;18.132;2023-11-19T12:57:54;18.10;;;9.30;;
57317;SDS011;43157;50.982;18.132;2023-11-19T13:00:24;33.90;;;11.80;;
57317;SDS011;43157;50.982;18.132;2023-11-19T13:02:53;22.50;;;9.80;;
57317;SDS011;43157;50.982;18.132;2023-11-19T13:05:29;24.20;;;11.20;;
57317;SDS011;43157;50.982;18.132;2023-11-19T13:10:26;23.70;;;9.70;;
57317;SDS011;43157;50.982;18.132;2023-11-19T13:15:28;18.70;;;7.30;;
57317;SDS011;43157;50.982;18.132;2023-11-19T13:17:54;18.70;;;8.60;;
57317;SDS011;43157;50.982;18.132;2023-11-19T13:20:20;26.00;;;10.80;;
57317;SDS011;43157;50.982;18.132;2023-11-19T13:23:20;15.90;;;6.50;;
57317;SDS011;43157;50.982;18.132;2023-11-19T13:25:40;17.40;;;7.40;;
57317;SDS011;43157;50.982;18.132;2023-11-19T13:28:06;27.30;;;10.80;;
57317;SDS011;43157;50.982;18.132;2023-11-19T13:30:31;24.00;;;9.70;;
57317;SDS011;43157;50.982;18.132;2023-11-19T13:32:57;32.50;;;12.90;;
57317;SDS011;43157;50.982;18.132;2023-11-19T13:35:22;24.20;;;11.20;;
57317;SDS011;43157;50.982;18.132;2023-11-19T13:37:49;20.00;;;8.20;;
57317;SDS011;43157;50.982;18.132;2023-11-19T13:40:15;41.70;;;14.40;;
57317;SDS011;43157;50.982;18.132;2023-11-19T13:42:41;27.00;;;10.50;;
57317;SDS011;43157;50.982;18.132;2023-11-19T13:45:10;29.80;;;11.70;;
57317;SDS011;43157;50.982;18.132;2023-11-19T13:47:38;25.30;;;8.50;;
57317;SDS011;43157;50.982;18.132;2023-11-19T13:50:11;29.70;;;12.30;;
57317;SDS011;43157;50.982;18.132;2023-11-19T13:52:40;29.30;;;9.90;;
57317;SDS011;43157;50.982;18.132;2023-11-19T13:55:07;23.20;;;9.10;;
57317;SDS011;43157;50.982;18.132;2023-11-19T13:57:37;30.50;;;12.10;;
57317;SDS011;43157;50.982;18.132;2023-11-19T14:00:04;28.70;;;9.80;;
57317;SDS011;43157;50.982;18.132;2023-11-19T14:02:49;30.90;;;12.90;;
57317;SDS011;43157;50.982;18.132;2023-11-19T14:05:15;25.70;;;11.00;;
57317;SDS011;43157;50.982;18.132;2023-11-19T14:07:44;79.50;;;31.40;;
57317;SDS011;43157;50.982;18.132;2023-11-19T14:10:10;23.10;;;10.50;;
57317;SDS011;43157;50.982;18.132;2023-11-19T14:12:37;37.60;;;16.50;;
57317;SDS011;43157;50.982;18.132;2023-11-19T14:15:03;22.40;;;10.00;;
57317;SDS011;43157;50.982;18.132;2023-11-19T14:17:31;18.20;;;9.00;;
57317;SDS011;43157;50.982;18.132;2023-11-19T14:19:58;26.50;;;10.00;;
57317;SDS011;43157;50.982;18.132;2023-11-19T14:22:23;27.50;;;11.80;;
57317;SDS011;43157;50.982;18.132;2023-11-19T14:24:50;44.30;;;20.80;;
57317;SDS011;43157;50.982;18.132;2023-11-19T14:27:16;40.10;;;16.50;;
57317;SDS011;43157;50.982;18.132;2023-11-19T14:29:43;41.20;;;14.50;;
57317;SDS011;43157;50.982;18.132;2023-11-19T14:32:12;40.60;;;15.70;;
57317;SDS011;43157;50.982;18.132;2023-11-19T14:34:38;44.30;;;16.10;;
57317;SDS011;43157;50.982;18.132;2023-11-19T14:37:04;31.50;;;11.80;;
57317;SDS011;43157;50.982;18.132;2023-11-19T14:39:30;35.40;;;13.20;;
57317;SDS011;43157;50.982;18.132;2023-11-19T14:41:57;30.90;;;12.30;;
57317;SDS011;43157;50.982;18.132;2023-11-19T14:44:29;39.60;;;14.10;;
57317;SDS011;43157;50.982;18.132;2023-11-19T14:46:54;42.00;;;16.00;;
57317;SDS011;43157;50.982;18.132;2023-11-19T14:49:20;48.10;;;15.90;;
57317;SDS011;43157;50.982;18.132;2023-11-19T14:51:46;64.10;;;20.00;;
57317;SDS011;43157;50.982;18.132;2023-11-19T14:54:11;57.20;;;19.60;;
57317;SDS011;43157;50.982;18.132;2023-11-19T14:56:37;66.80;;;22.80;;